sensor_id;sensor_type;location;lat;lon;timestamp;temperature;humidity
23271;DHT22;11804;51.118;17.058;2022-09-14T00:01:37;17.40;99.90
23271;DHT22;11804;51.118;17.058;2022-09-14T00:04:05;17.40;99.90
23271;DHT22;11804;51.118;17.058;2022-09-14T00:06:32;17.30;99.90
23271;DHT22;11804;51.118;17.058;2022-09-14T00:09:02;17.30;99.90
23271;DHT22;11804;51.118;17.058;2022-09-14T00:11:32;17.20;99.90
23271;DHT22;11804;51.118;17.058;2022-09-14T00:14:02;17.20;99.90
23271;DHT22;11804;51.118;17.058;2022-09-14T00:16:35;17.20;99.90
23271;DHT22;11804;51.118;17.058;2022-09-14T00:19:04;17.20;99.90
23271;DHT22;11804;51.118;17.058;2022-09-14T00:21:33;17.10;99.90
23271;DHT22;11804;51.118;17.058;2022-09-14T00:24:02;17.10;99.90
23271;DHT22;11804;51.118;17.058;2022-09-14T00:26:31;17.10;99.90
23271;DHT22;11804;51.118;17.058;2022-09-14T00:29:00;17.10;99.90
23271;DHT22;11804;51.118;17.058;2022-09-14T00:31:36;17.10;99.90
23271;DHT22;11804;51.118;17.058;2022-09-14T00:34:06;17.10;99.90
23271;DHT22;11804;51.118;17.058;2022-09-14T00:36:39;17.10;99.90
23271;DHT22;11804;51.118;17.058;2022-09-14T00:39:08;17.10;99.90
23271;DHT22;11804;51.118;17.058;2022-09-14T00:41:37;17.10;99.90
23271;DHT22;11804;51.118;17.058;2022-09-14T00:46:42;17.10;99.90
23271;DHT22;11804;51.118;17.058;2022-09-14T00:49:15;17.10;99.90
23271;DHT22;11804;51.118;17.058;2022-09-14T00:52:31;17.20;99.90
23271;DHT22;11804;51.118;17.058;2022-09-14T00:54:15;17.20;99.90
23271;DHT22;11804;51.118;17.058;2022-09-14T00:56:45;17.20;99.90
23271;DHT22;11804;51.118;17.058;2022-09-14T00:59:24;17.20;99.90
23271;DHT22;11804;51.118;17.058;2022-09-14T01:01:54;17.20;99.90
23271;DHT22;11804;51.118;17.058;2022-09-14T01:04:22;17.10;99.90
23271;DHT22;11804;51.118;17.058;2022-09-14T01:07:05;17.10;99.90
23271;DHT22;11804;51.118;17.058;2022-09-14T01:09:44;17.20;99.90
23271;DHT22;11804;51.118;17.058;2022-09-14T01:15:14;17.10;99.90
23271;DHT22;11804;51.118;17.058;2022-09-14T01:18:02;17.10;99.90
23271;DHT22;11804;51.118;17.058;2022-09-14T01:20:32;17.10;99.90
23271;DHT22;11804;51.118;17.058;2022-09-14T01:23:06;17.00;99.90
23271;DHT22;11804;51.118;17.058;2022-09-14T01:28:49;17.00;99.90
23271;DHT22;11804;51.118;17.058;2022-09-14T01:31:20;17.10;99.90
23271;DHT22;11804;51.118;17.058;2022-09-14T01:33:50;17.00;99.90
23271;DHT22;11804;51.118;17.058;2022-09-14T01:36:17;17.00;99.90
23271;DHT22;11804;51.118;17.058;2022-09-14T01:38:47;17.10;99.90
23271;DHT22;11804;51.118;17.058;2022-09-14T01:41:22;17.10;99.90
23271;DHT22;11804;51.118;17.058;2022-09-14T01:46:44;17.10;99.90
23271;DHT22;11804;51.118;17.058;2022-09-14T01:49:31;17.10;99.90
23271;DHT22;11804;51.118;17.058;2022-09-14T01:52:05;17.10;99.90
23271;DHT22;11804;51.118;17.058;2022-09-14T01:57:14;17.10;99.90
23271;DHT22;11804;51.118;17.058;2022-09-14T01:59:46;17.10;99.90
23271;DHT22;11804;51.118;17.058;2022-09-14T02:02:19;17.00;99.90
23271;DHT22;11804;51.118;17.058;2022-09-14T02:04:53;17.00;99.90
23271;DHT22;11804;51.118;17.058;2022-09-14T02:07:24;17.00;99.90
23271;DHT22;11804;51.118;17.058;2022-09-14T02:09:53;17.00;99.90
23271;DHT22;11804;51.118;17.058;2022-09-14T02:12:22;17.00;99.90
23271;DHT22;11804;51.118;17.058;2022-09-14T02:14:52;17.10;99.90
23271;DHT22;11804;51.118;17.058;2022-09-14T02:17:21;17.00;99.90
23271;DHT22;11804;51.118;17.058;2022-09-14T02:19:58;17.10;99.90
23271;DHT22;11804;51.118;17.058;2022-09-14T02:22:27;17.00;99.90
23271;DHT22;11804;51.118;17.058;2022-09-14T02:24:56;17.00;99.90
23271;DHT22;11804;51.118;17.058;2022-09-14T02:27:25;16.90;99.90
23271;DHT22;11804;51.118;17.058;2022-09-14T02:29:53;17.00;99.90
23271;DHT22;11804;51.118;17.058;2022-09-14T02:32:36;16.90;99.90
23271;DHT22;11804;51.118;17.058;2022-09-14T02:35:39;16.90;99.90
23271;DHT22;11804;51.118;17.058;2022-09-14T02:40:50;16.90;99.90
23271;DHT22;11804;51.118;17.058;2022-09-14T02:43:42;16.90;99.90
23271;DHT22;11804;51.118;17.058;2022-09-14T02:46:37;16.90;99.90
23271;DHT22;11804;51.118;17.058;2022-09-14T02:49:33;17.00;99.90
23271;DHT22;11804;51.118;17.058;2022-09-14T02:52:17;16.90;99.90
23271;DHT22;11804;51.118;17.058;2022-09-14T02:55:05;16.90;99.90
23271;DHT22;11804;51.118;17.058;2022-09-14T02:57:29;16.90;99.90
23271;DHT22;11804;51.118;17.058;2022-09-14T02:59:57;16.90;99.90
23271;DHT22;11804;51.118;17.058;2022-09-14T03:02:24;16.90;99.90
23271;DHT22;11804;51.118;17.058;2022-09-14T03:04:51;16.90;99.90
23271;DHT22;11804;51.118;17.058;2022-09-14T03:07:19;16.80;99.90
23271;DHT22;11804;51.118;17.058;2022-09-14T03:09:47;16.80;99.90
23271;DHT22;11804;51.118;17.058;2022-09-14T03:12:15;16.80;99.90
23271;DHT22;11804;51.118;17.058;2022-09-14T03:14:43;16.80;99.90
23271;DHT22;11804;51.118;17.058;2022-09-14T03:17:11;16.80;99.90
23271;DHT22;11804;51.118;17.058;2022-09-14T03:19:38;16.80;99.90
23271;DHT22;11804;51.118;17.058;2022-09-14T03:22:06;16.80;99.90
23271;DHT22;11804;51.118;17.058;2022-09-14T03:24:34;16.80;99.90
23271;DHT22;11804;51.118;17.058;2022-09-14T03:27:01;16.70;99.90
23271;DHT22;11804;51.118;17.058;2022-09-14T03:29:29;16.60;99.90
23271;DHT22;11804;51.118;17.058;2022-09-14T03:31:56;16.70;99.90
23271;DHT22;11804;51.118;17.058;2022-09-14T03:34:24;16.70;99.90
23271;DHT22;11804;51.118;17.058;2022-09-14T03:36:51;16.60;99.90
23271;DHT22;11804;51.118;17.058;2022-09-14T03:39:19;16.60;99.90
23271;DHT22;11804;51.118;17.058;2022-09-14T03:41:47;16.60;99.90
23271;DHT22;11804;51.118;17.058;2022-09-14T03:44:14;16.50;99.90
23271;DHT22;11804;51.118;17.058;2022-09-14T03:46:43;16.50;99.90
23271;DHT22;11804;51.118;17.058;2022-09-14T03:49:10;16.50;99.90
23271;DHT22;11804;51.118;17.058;2022-09-14T03:51:38;16.50;99.90
23271;DHT22;11804;51.118;17.058;2022-09-14T03:54:05;16.40;99.90
23271;DHT22;11804;51.118;17.058;2022-09-14T03:56:33;16.40;99.90
23271;DHT22;11804;51.118;17.058;2022-09-14T03:59:00;16.40;99.90
23271;DHT22;11804;51.118;17.058;2022-09-14T04:01:28;16.40;99.90
23271;DHT22;11804;51.118;17.058;2022-09-14T04:03:57;16.40;99.90
23271;DHT22;11804;51.118;17.058;2022-09-14T04:06:25;16.40;99.90
23271;DHT22;11804;51.118;17.058;2022-09-14T04:08:52;16.40;99.90
23271;DHT22;11804;51.118;17.058;2022-09-14T04:11:22;16.40;99.90
23271;DHT22;11804;51.118;17.058;2022-09-14T04:13:51;16.30;99.90
23271;DHT22;11804;51.118;17.058;2022-09-14T04:16:20;16.30;99.90
23271;DHT22;11804;51.118;17.058;2022-09-14T04:18:48;16.40;99.90
23271;DHT22;11804;51.118;17.058;2022-09-14T04:21:18;16.40;99.90
23271;DHT22;11804;51.118;17.058;2022-09-14T04:23:46;16.40;99.90
23271;DHT22;11804;51.118;17.058;2022-09-14T04:26:16;16.30;99.90
23271;DHT22;11804;51.118;17.058;2022-09-14T04:28:44;16.30;99.90
23271;DHT22;11804;51.118;17.058;2022-09-14T04:31:12;16.30;99.90
23271;DHT22;11804;51.118;17.058;2022-09-14T04:33:44;16.30;99.90
23271;DHT22;11804;51.118;17.058;2022-09-14T04:36:15;16.30;99.90
23271;DHT22;11804;51.118;17.058;2022-09-14T04:38:43;16.30;99.90
23271;DHT22;11804;51.118;17.058;2022-09-14T04:41:16;16.30;99.90
23271;DHT22;11804;51.118;17.058;2022-09-14T04:43:47;16.30;99.90
23271;DHT22;11804;51.118;17.058;2022-09-14T04:46:21;16.30;99.90
23271;DHT22;11804;51.118;17.058;2022-09-14T04:48:50;16.30;99.90
23271;DHT22;11804;51.118;17.058;2022-09-14T04:51:20;16.30;99.90
23271;DHT22;11804;51.118;17.058;2022-09-14T04:53:52;16.30;99.90
23271;DHT22;11804;51.118;17.058;2022-09-14T04:56:21;16.30;99.90
23271;DHT22;11804;51.118;17.058;2022-09-14T04:58:52;16.30;99.90
23271;DHT22;11804;51.118;17.058;2022-09-14T05:01:21;16.40;99.90
23271;DHT22;11804;51.118;17.058;2022-09-14T05:03:49;16.40;99.90
23271;DHT22;11804;51.118;17.058;2022-09-14T05:06:20;16.40;99.90
23271;DHT22;11804;51.118;17.058;2022-09-14T05:08:48;16.40;99.90
23271;DHT22;11804;51.118;17.058;2022-09-14T05:11:21;16.50;99.90
23271;DHT22;11804;51.118;17.058;2022-09-14T05:13:49;16.50;99.90
23271;DHT22;11804;51.118;17.058;2022-09-14T05:16:20;16.60;99.90
23271;DHT22;11804;51.118;17.058;2022-09-14T05:18:48;16.60;99.90
23271;DHT22;11804;51.118;17.058;2022-09-14T05:21:18;16.70;99.90
23271;DHT22;11804;51.118;17.058;2022-09-14T05:23:47;16.70;99.90
23271;DHT22;11804;51.118;17.058;2022-09-14T05:26:15;16.80;99.90
23271;DHT22;11804;51.118;17.058;2022-09-14T05:28:47;16.80;99.90
23271;DHT22;11804;51.118;17.058;2022-09-14T05:31:12;16.80;99.90
23271;DHT22;11804;51.118;17.058;2022-09-14T05:33:41;16.90;99.90
23271;DHT22;11804;51.118;17.058;2022-09-14T05:36:09;17.00;99.90
23271;DHT22;11804;51.118;17.058;2022-09-14T05:38:38;17.00;99.90
23271;DHT22;11804;51.118;17.058;2022-09-14T05:41:08;17.00;99.90
23271;DHT22;11804;51.118;17.058;2022-09-14T05:43:37;17.00;99.90
23271;DHT22;11804;51.118;17.058;2022-09-14T05:46:09;17.00;99.90
23271;DHT22;11804;51.118;17.058;2022-09-14T05:48:39;17.00;99.90
23271;DHT22;11804;51.118;17.058;2022-09-14T05:51:15;17.00;99.90
23271;DHT22;11804;51.118;17.058;2022-09-14T05:53:48;17.00;99.90
23271;DHT22;11804;51.118;17.058;2022-09-14T05:56:16;16.90;99.90
23271;DHT22;11804;51.118;17.058;2022-09-14T05:58:44;16.90;99.90
23271;DHT22;11804;51.118;17.058;2022-09-14T06:01:15;17.00;99.90
23271;DHT22;11804;51.118;17.058;2022-09-14T06:03:43;17.00;99.90
23271;DHT22;11804;51.118;17.058;2022-09-14T06:06:13;17.00;99.90
23271;DHT22;11804;51.118;17.058;2022-09-14T06:08:41;17.00;99.90
23271;DHT22;11804;51.118;17.058;2022-09-14T06:11:11;17.10;99.90
23271;DHT22;11804;51.118;17.058;2022-09-14T06:13:41;17.20;99.90
23271;DHT22;11804;51.118;17.058;2022-09-14T06:16:11;17.10;99.90
23271;DHT22;11804;51.118;17.058;2022-09-14T06:18:40;17.10;99.90
23271;DHT22;11804;51.118;17.058;2022-09-14T06:21:09;17.20;99.90
23271;DHT22;11804;51.118;17.058;2022-09-14T06:23:37;17.20;99.90
23271;DHT22;11804;51.118;17.058;2022-09-14T06:26:05;17.20;99.90
23271;DHT22;11804;51.118;17.058;2022-09-14T06:28:34;17.20;99.90
23271;DHT22;11804;51.118;17.058;2022-09-14T06:31:03;17.30;99.90
23271;DHT22;11804;51.118;17.058;2022-09-14T06:33:33;17.40;99.90
23271;DHT22;11804;51.118;17.058;2022-09-14T06:36:06;17.50;99.90
23271;DHT22;11804;51.118;17.058;2022-09-14T06:38:35;17.70;99.90
23271;DHT22;11804;51.118;17.058;2022-09-14T06:41:04;17.90;99.90
23271;DHT22;11804;51.118;17.058;2022-09-14T06:43:34;18.20;99.90
23271;DHT22;11804;51.118;17.058;2022-09-14T06:46:05;18.50;99.90
23271;DHT22;11804;51.118;17.058;2022-09-14T06:48:35;18.60;99.90
23271;DHT22;11804;51.118;17.058;2022-09-14T06:51:22;18.60;99.90
23271;DHT22;11804;51.118;17.058;2022-09-14T06:53:47;18.50;99.90
23271;DHT22;11804;51.118;17.058;2022-09-14T06:56:15;18.50;99.90
23271;DHT22;11804;51.118;17.058;2022-09-14T06:58:43;18.50;99.90
23271;DHT22;11804;51.118;17.058;2022-09-14T07:01:14;18.40;99.90
23271;DHT22;11804;51.118;17.058;2022-09-14T07:03:42;18.40;99.90
23271;DHT22;11804;51.118;17.058;2022-09-14T07:06:15;18.30;99.90
23271;DHT22;11804;51.118;17.058;2022-09-14T07:08:44;18.30;99.90
23271;DHT22;11804;51.118;17.058;2022-09-14T07:11:13;18.20;99.90
23271;DHT22;11804;51.118;17.058;2022-09-14T07:13:43;18.30;99.90
23271;DHT22;11804;51.118;17.058;2022-09-14T07:16:12;18.30;99.90
23271;DHT22;11804;51.118;17.058;2022-09-14T07:18:42;18.40;99.90
23271;DHT22;11804;51.118;17.058;2022-09-14T07:21:12;18.50;99.90
23271;DHT22;11804;51.118;17.058;2022-09-14T07:23:41;18.50;99.90
23271;DHT22;11804;51.118;17.058;2022-09-14T07:26:15;18.70;99.90
23271;DHT22;11804;51.118;17.058;2022-09-14T07:28:45;18.60;99.90
23271;DHT22;11804;51.118;17.058;2022-09-14T07:31:26;18.70;99.90
23271;DHT22;11804;51.118;17.058;2022-09-14T07:33:54;18.80;99.90
23271;DHT22;11804;51.118;17.058;2022-09-14T07:36:24;18.90;99.90
23271;DHT22;11804;51.118;17.058;2022-09-14T07:38:53;19.00;99.90
23271;DHT22;11804;51.118;17.058;2022-09-14T07:41:22;19.00;99.90
23271;DHT22;11804;51.118;17.058;2022-09-14T07:43:52;19.10;99.90
23271;DHT22;11804;51.118;17.058;2022-09-14T07:46:21;19.20;99.90
23271;DHT22;11804;51.118;17.058;2022-09-14T07:48:54;19.20;99.90
23271;DHT22;11804;51.118;17.058;2022-09-14T07:51:23;19.20;99.90
23271;DHT22;11804;51.118;17.058;2022-09-14T07:53:51;19.30;99.90
23271;DHT22;11804;51.118;17.058;2022-09-14T07:56:19;19.40;99.90
23271;DHT22;11804;51.118;17.058;2022-09-14T07:58:51;19.50;99.90
23271;DHT22;11804;51.118;17.058;2022-09-14T08:01:17;19.60;99.90
23271;DHT22;11804;51.118;17.058;2022-09-14T08:03:45;19.60;99.90
23271;DHT22;11804;51.118;17.058;2022-09-14T08:06:16;19.70;99.90
23271;DHT22;11804;51.118;17.058;2022-09-14T08:08:46;19.70;99.90
23271;DHT22;11804;51.118;17.058;2022-09-14T08:11:21;19.90;99.90
23271;DHT22;11804;51.118;17.058;2022-09-14T08:13:59;20.00;99.90
23271;DHT22;11804;51.118;17.058;2022-09-14T08:16:30;20.10;99.90
23271;DHT22;11804;51.118;17.058;2022-09-14T08:19:00;20.10;99.90
23271;DHT22;11804;51.118;17.058;2022-09-14T08:21:31;20.00;99.90
23271;DHT22;11804;51.118;17.058;2022-09-14T08:24:01;20.10;99.90
23271;DHT22;11804;51.118;17.058;2022-09-14T08:26:30;20.10;99.90
23271;DHT22;11804;51.118;17.058;2022-09-14T08:28:57;20.20;99.90
23271;DHT22;11804;51.118;17.058;2022-09-14T08:31:27;20.20;99.90
23271;DHT22;11804;51.118;17.058;2022-09-14T08:33:56;20.20;99.90
23271;DHT22;11804;51.118;17.058;2022-09-14T08:36:28;20.20;99.90
23271;DHT22;11804;51.118;17.058;2022-09-14T08:38:55;20.20;99.90
23271;DHT22;11804;51.118;17.058;2022-09-14T08:44:14;20.00;99.90
23271;DHT22;11804;51.118;17.058;2022-09-14T08:46:53;20.00;99.90
23271;DHT22;11804;51.118;17.058;2022-09-14T08:52:03;20.00;99.90
23271;DHT22;11804;51.118;17.058;2022-09-14T08:54:32;20.10;99.90
23271;DHT22;11804;51.118;17.058;2022-09-14T08:57:05;20.00;99.90
23271;DHT22;11804;51.118;17.058;2022-09-14T09:10:47;20.30;99.90
23271;DHT22;11804;51.118;17.058;2022-09-14T09:13:18;20.40;99.90
23271;DHT22;11804;51.118;17.058;2022-09-14T09:15:52;20.30;99.90
23271;DHT22;11804;51.118;17.058;2022-09-14T09:21:17;20.30;99.90
23271;DHT22;11804;51.118;17.058;2022-09-14T09:23:40;20.50;99.90
23271;DHT22;11804;51.118;17.058;2022-09-14T09:28:52;20.70;99.90
23271;DHT22;11804;51.118;17.058;2022-09-14T09:31:34;20.80;99.90
23271;DHT22;11804;51.118;17.058;2022-09-14T09:34:03;20.90;99.90
23271;DHT22;11804;51.118;17.058;2022-09-14T09:36:40;20.80;99.90
23271;DHT22;11804;51.118;17.058;2022-09-14T09:39:04;20.80;99.90
23271;DHT22;11804;51.118;17.058;2022-09-14T09:41:38;20.70;99.90
23271;DHT22;11804;51.118;17.058;2022-09-14T09:44:05;20.60;99.90
23271;DHT22;11804;51.118;17.058;2022-09-14T09:46:54;20.70;99.90
23271;DHT22;11804;51.118;17.058;2022-09-14T09:49:29;20.80;99.90
23271;DHT22;11804;51.118;17.058;2022-09-14T09:52:10;20.90;99.90
23271;DHT22;11804;51.118;17.058;2022-09-14T09:54:48;21.00;99.90
23271;DHT22;11804;51.118;17.058;2022-09-14T09:57:21;21.00;99.90
23271;DHT22;11804;51.118;17.058;2022-09-14T09:59:49;20.80;99.90
23271;DHT22;11804;51.118;17.058;2022-09-14T10:10:38;20.90;99.90
23271;DHT22;11804;51.118;17.058;2022-09-14T10:12:55;20.90;99.90
23271;DHT22;11804;51.118;17.058;2022-09-14T10:15:31;21.10;99.90
23271;DHT22;11804;51.118;17.058;2022-09-14T10:23:23;21.20;99.90
23271;DHT22;11804;51.118;17.058;2022-09-14T10:26:13;21.20;99.90
23271;DHT22;11804;51.118;17.058;2022-09-14T10:28:30;21.20;99.90
23271;DHT22;11804;51.118;17.058;2022-09-14T10:31:06;21.00;99.90
23271;DHT22;11804;51.118;17.058;2022-09-14T10:33:29;21.00;99.90
23271;DHT22;11804;51.118;17.058;2022-09-14T10:52:43;20.80;99.90
23271;DHT22;11804;51.118;17.058;2022-09-14T10:55:32;21.00;99.90
23271;DHT22;11804;51.118;17.058;2022-09-14T10:58:11;21.10;99.90
23271;DHT22;11804;51.118;17.058;2022-09-14T11:00:47;21.20;99.90
23271;DHT22;11804;51.118;17.058;2022-09-14T11:08:56;21.40;99.90
23271;DHT22;11804;51.118;17.058;2022-09-14T11:11:31;21.50;99.90
23271;DHT22;11804;51.118;17.058;2022-09-14T11:17:04;21.60;99.90
23271;DHT22;11804;51.118;17.058;2022-09-14T11:19:47;21.00;99.90
23271;DHT22;11804;51.118;17.058;2022-09-14T11:25:04;20.50;99.90
23271;DHT22;11804;51.118;17.058;2022-09-14T11:27:38;20.40;99.90
23271;DHT22;11804;51.118;17.058;2022-09-14T11:30:22;20.30;99.90
23271;DHT22;11804;51.118;17.058;2022-09-14T11:32:59;20.40;99.90
23271;DHT22;11804;51.118;17.058;2022-09-14T11:38:02;20.80;99.90
23271;DHT22;11804;51.118;17.058;2022-09-14T11:40:35;21.10;99.90
23271;DHT22;11804;51.118;17.058;2022-09-14T11:43:12;21.20;99.90
23271;DHT22;11804;51.118;17.058;2022-09-14T11:45:50;21.40;99.90
23271;DHT22;11804;51.118;17.058;2022-09-14T11:48:23;21.50;99.90
23271;DHT22;11804;51.118;17.058;2022-09-14T11:50:52;21.50;99.90
23271;DHT22;11804;51.118;17.058;2022-09-14T11:53:22;21.40;99.90
23271;DHT22;11804;51.118;17.058;2022-09-14T11:55:51;21.20;99.90
23271;DHT22;11804;51.118;17.058;2022-09-14T11:58:21;21.20;99.90
23271;DHT22;11804;51.118;17.058;2022-09-14T12:03:21;20.00;99.90
23271;DHT22;11804;51.118;17.058;2022-09-14T12:05:50;19.90;99.90
23271;DHT22;11804;51.118;17.058;2022-09-14T12:08:27;20.10;99.90
23271;DHT22;11804;51.118;17.058;2022-09-14T12:13:42;20.60;99.90
23271;DHT22;11804;51.118;17.058;2022-09-14T12:16:10;21.10;99.90
23271;DHT22;11804;51.118;17.058;2022-09-14T12:18:39;21.50;99.90
23271;DHT22;11804;51.118;17.058;2022-09-14T12:21:24;21.70;99.90
23271;DHT22;11804;51.118;17.058;2022-09-14T12:23:53;21.60;99.90
23271;DHT22;11804;51.118;17.058;2022-09-14T12:26:29;21.80;99.90
23271;DHT22;11804;51.118;17.058;2022-09-14T12:28:56;21.80;99.90
23271;DHT22;11804;51.118;17.058;2022-09-14T12:31:34;22.10;99.90
23271;DHT22;11804;51.118;17.058;2022-09-14T12:34:26;22.20;99.90
23271;DHT22;11804;51.118;17.058;2022-09-14T12:39:27;22.30;99.90
23271;DHT22;11804;51.118;17.058;2022-09-14T12:41:58;22.40;99.90
23271;DHT22;11804;51.118;17.058;2022-09-14T12:44:37;22.10;99.90
23271;DHT22;11804;51.118;17.058;2022-09-14T12:49:55;21.70;99.90
23271;DHT22;11804;51.118;17.058;2022-09-14T12:55:05;20.60;99.90
23271;DHT22;11804;51.118;17.058;2022-09-14T12:57:42;20.00;99.90
23271;DHT22;11804;51.118;17.058;2022-09-14T13:00:10;19.90;99.90
23271;DHT22;11804;51.118;17.058;2022-09-14T13:03:06;19.90;99.90
23271;DHT22;11804;51.118;17.058;2022-09-14T13:05:32;20.00;99.90
23271;DHT22;11804;51.118;17.058;2022-09-14T13:08:06;19.90;99.90
23271;DHT22;11804;51.118;17.058;2022-09-14T13:10:32;20.00;99.90
23271;DHT22;11804;51.118;17.058;2022-09-14T13:13:04;20.00;99.90
23271;DHT22;11804;51.118;17.058;2022-09-14T13:15:36;19.90;99.90
23271;DHT22;11804;51.118;17.058;2022-09-14T13:20:56;20.00;99.90
23271;DHT22;11804;51.118;17.058;2022-09-14T13:23:29;20.00;99.90
23271;DHT22;11804;51.118;17.058;2022-09-14T13:25:57;20.00;99.90
23271;DHT22;11804;51.118;17.058;2022-09-14T13:28:29;20.10;99.90
23271;DHT22;11804;51.118;17.058;2022-09-14T13:30:59;20.30;99.90
23271;DHT22;11804;51.118;17.058;2022-09-14T13:33:28;20.20;99.90
23271;DHT22;11804;51.118;17.058;2022-09-14T13:36:00;20.20;99.90
23271;DHT22;11804;51.118;17.058;2022-09-14T13:38:33;20.20;99.90
23271;DHT22;11804;51.118;17.058;2022-09-14T13:41:12;20.20;99.90
23271;DHT22;11804;51.118;17.058;2022-09-14T13:43:35;20.10;99.90
23271;DHT22;11804;51.118;17.058;2022-09-14T13:46:05;20.00;99.90
23271;DHT22;11804;51.118;17.058;2022-09-14T13:48:35;20.00;99.90
23271;DHT22;11804;51.118;17.058;2022-09-14T13:51:06;20.10;99.90
23271;DHT22;11804;51.118;17.058;2022-09-14T13:53:45;20.20;99.90
23271;DHT22;11804;51.118;17.058;2022-09-14T13:56:28;20.20;99.90
23271;DHT22;11804;51.118;17.058;2022-09-14T13:59:18;20.20;99.90
23271;DHT22;11804;51.118;17.058;2022-09-14T14:01:53;20.10;99.90
23271;DHT22;11804;51.118;17.058;2022-09-14T14:04:36;20.10;99.90
23271;DHT22;11804;51.118;17.058;2022-09-14T14:07:14;20.30;99.90
23271;DHT22;11804;51.118;17.058;2022-09-14T14:09:45;20.40;99.90
23271;DHT22;11804;51.118;17.058;2022-09-14T14:12:35;20.40;99.90
23271;DHT22;11804;51.118;17.058;2022-09-14T14:17:41;20.70;99.90
23271;DHT22;11804;51.118;17.058;2022-09-14T14:20:28;20.80;99.90
23271;DHT22;11804;51.118;17.058;2022-09-14T14:25:44;21.00;99.90
23271;DHT22;11804;51.118;17.058;2022-09-14T14:28:26;21.00;99.90
23271;DHT22;11804;51.118;17.058;2022-09-14T14:30:56;21.00;99.90
23271;DHT22;11804;51.118;17.058;2022-09-14T14:33:24;20.80;99.90
23271;DHT22;11804;51.118;17.058;2022-09-14T14:35:54;20.70;99.90
23271;DHT22;11804;51.118;17.058;2022-09-14T14:38:23;20.60;99.90
23271;DHT22;11804;51.118;17.058;2022-09-14T14:40:52;20.40;99.90
23271;DHT22;11804;51.118;17.058;2022-09-14T14:43:22;20.40;99.90
23271;DHT22;11804;51.118;17.058;2022-09-14T14:45:56;20.30;99.90
23271;DHT22;11804;51.118;17.058;2022-09-14T14:48:26;20.20;99.90
23271;DHT22;11804;51.118;17.058;2022-09-14T14:50:54;20.20;99.90
23271;DHT22;11804;51.118;17.058;2022-09-14T14:53:24;20.20;99.90
23271;DHT22;11804;51.118;17.058;2022-09-14T14:55:52;20.20;99.90
23271;DHT22;11804;51.118;17.058;2022-09-14T14:58:21;20.20;99.90
23271;DHT22;11804;51.118;17.058;2022-09-14T15:00:49;20.20;99.90
23271;DHT22;11804;51.118;17.058;2022-09-14T15:03:17;20.20;99.90
23271;DHT22;11804;51.118;17.058;2022-09-14T15:05:46;20.10;99.90
23271;DHT22;11804;51.118;17.058;2022-09-14T15:08:16;20.00;99.90
23271;DHT22;11804;51.118;17.058;2022-09-14T15:10:45;20.00;99.90
23271;DHT22;11804;51.118;17.058;2022-09-14T15:13:13;20.00;99.90
23271;DHT22;11804;51.118;17.058;2022-09-14T15:15:41;19.90;99.90
23271;DHT22;11804;51.118;17.058;2022-09-14T15:18:10;19.90;99.90
23271;DHT22;11804;51.118;17.058;2022-09-14T15:20:37;19.90;99.90
23271;DHT22;11804;51.118;17.058;2022-09-14T15:23:05;19.90;99.90
23271;DHT22;11804;51.118;17.058;2022-09-14T15:25:33;19.90;99.90
23271;DHT22;11804;51.118;17.058;2022-09-14T15:28:01;19.90;99.90
23271;DHT22;11804;51.118;17.058;2022-09-14T15:30:28;20.00;99.90
23271;DHT22;11804;51.118;17.058;2022-09-14T15:32:56;20.10;99.90
23271;DHT22;11804;51.118;17.058;2022-09-14T15:35:23;20.10;99.90
23271;DHT22;11804;51.118;17.058;2022-09-14T15:37:51;20.10;99.90
23271;DHT22;11804;51.118;17.058;2022-09-14T15:40:18;20.00;99.90
23271;DHT22;11804;51.118;17.058;2022-09-14T15:42:46;20.00;99.90
23271;DHT22;11804;51.118;17.058;2022-09-14T15:45:13;20.00;99.90
23271;DHT22;11804;51.118;17.058;2022-09-14T15:47:41;19.90;99.90
23271;DHT22;11804;51.118;17.058;2022-09-14T15:50:09;19.90;99.90
23271;DHT22;11804;51.118;17.058;2022-09-14T15:52:37;19.80;99.90
23271;DHT22;11804;51.118;17.058;2022-09-14T15:55:07;19.80;99.90
23271;DHT22;11804;51.118;17.058;2022-09-14T15:57:36;19.80;99.90
23271;DHT22;11804;51.118;17.058;2022-09-14T16:00:06;19.80;99.90
23271;DHT22;11804;51.118;17.058;2022-09-14T16:02:34;19.80;99.90
23271;DHT22;11804;51.118;17.058;2022-09-14T16:05:01;19.80;99.90
23271;DHT22;11804;51.118;17.058;2022-09-14T16:07:29;19.80;99.90
23271;DHT22;11804;51.118;17.058;2022-09-14T16:09:57;19.70;99.90
23271;DHT22;11804;51.118;17.058;2022-09-14T16:12:24;19.70;99.90
23271;DHT22;11804;51.118;17.058;2022-09-14T16:14:52;19.70;99.90
23271;DHT22;11804;51.118;17.058;2022-09-14T16:17:20;19.70;99.90
23271;DHT22;11804;51.118;17.058;2022-09-14T16:19:48;19.60;99.90
23271;DHT22;11804;51.118;17.058;2022-09-14T16:22:15;19.50;99.90
23271;DHT22;11804;51.118;17.058;2022-09-14T16:24:43;19.50;99.90
23271;DHT22;11804;51.118;17.058;2022-09-14T16:27:10;19.40;99.90
23271;DHT22;11804;51.118;17.058;2022-09-14T16:29:38;19.50;99.90
23271;DHT22;11804;51.118;17.058;2022-09-14T16:32:06;19.40;99.90
23271;DHT22;11804;51.118;17.058;2022-09-14T16:34:34;19.40;99.90
23271;DHT22;11804;51.118;17.058;2022-09-14T16:37:02;19.30;99.90
23271;DHT22;11804;51.118;17.058;2022-09-14T16:39:30;19.30;99.90
23271;DHT22;11804;51.118;17.058;2022-09-14T16:41:59;19.30;99.90
23271;DHT22;11804;51.118;17.058;2022-09-14T16:44:27;19.20;99.90
23271;DHT22;11804;51.118;17.058;2022-09-14T16:46:56;19.10;99.90
23271;DHT22;11804;51.118;17.058;2022-09-14T16:49:25;19.10;99.90
23271;DHT22;11804;51.118;17.058;2022-09-14T16:51:53;19.10;99.90
23271;DHT22;11804;51.118;17.058;2022-09-14T16:54:21;19.00;99.90
23271;DHT22;11804;51.118;17.058;2022-09-14T16:56:49;19.00;99.90
23271;DHT22;11804;51.118;17.058;2022-09-14T16:59:17;19.00;99.90
23271;DHT22;11804;51.118;17.058;2022-09-14T17:01:46;18.90;99.90
23271;DHT22;11804;51.118;17.058;2022-09-14T17:04:16;18.90;99.90
23271;DHT22;11804;51.118;17.058;2022-09-14T17:06:45;18.90;99.90
23271;DHT22;11804;51.118;17.058;2022-09-14T17:09:17;18.80;99.90
23271;DHT22;11804;51.118;17.058;2022-09-14T17:11:45;18.80;99.90
23271;DHT22;11804;51.118;17.058;2022-09-14T17:14:17;18.80;99.90
23271;DHT22;11804;51.118;17.058;2022-09-14T17:16:44;18.80;99.90
23271;DHT22;11804;51.118;17.058;2022-09-14T17:19:12;18.80;99.90
23271;DHT22;11804;51.118;17.058;2022-09-14T17:21:42;18.70;99.90
23271;DHT22;11804;51.118;17.058;2022-09-14T17:24:11;18.70;99.90